sensor_id;sensor_type;location;lat;lon;timestamp;P1;durP1;ratioP1;P2;durP2;ratioP2
57746;SDS011;43580;44.014;20.466;2022-10-17T00:00:24;55.47;;;36.75;;
57746;SDS011;43580;44.014;20.466;2022-10-17T00:02:50;60.60;;;38.28;;
57746;SDS011;43580;44.014;20.466;2022-10-17T00:05:16;46.63;;;29.45;;
57746;SDS011;43580;44.014;20.466;2022-10-17T00:07:42;49.13;;;31.02;;
57746;SDS011;43580;44.014;20.466;2022-10-17T00:10:08;45.40;;;29.77;;
57746;SDS011;43580;44.014;20.466;2022-10-17T00:12:34;52.50;;;33.85;;
57746;SDS011;43580;44.014;20.466;2022-10-17T00:15:01;49.10;;;31.00;;
57746;SDS011;43580;44.014;20.466;2022-10-17T00:17:27;47.75;;;28.27;;
57746;SDS011;43580;44.014;20.466;2022-10-17T00:19:53;68.78;;;37.38;;
57746;SDS011;43580;44.014;20.466;2022-10-17T00:22:20;63.25;;;32.50;;
57746;SDS011;43580;44.014;20.466;2022-10-17T00:24:48;55.25;;;30.58;;
57746;SDS011;43580;44.014;20.466;2022-10-17T00:27:14;68.68;;;34.67;;
57746;SDS011;43580;44.014;20.466;2022-10-17T00:29:40;78.25;;;36.22;;
57746;SDS011;43580;44.014;20.466;2022-10-17T00:32:06;63.83;;;34.15;;
57746;SDS011;43580;44.014;20.466;2022-10-17T00:34:32;119.82;;;66.25;;
57746;SDS011;43580;44.014;20.466;2022-10-17T00:36:59;84.47;;;49.47;;
57746;SDS011;43580;44.014;20.466;2022-10-17T00:39:27;162.52;;;105.00;;
57746;SDS011;43580;44.014;20.466;2022-10-17T00:41:53;68.20;;;40.13;;
57746;SDS011;43580;44.014;20.466;2022-10-17T00:46:58;75.18;;;50.30;;
57746;SDS011;43580;44.014;20.466;2022-10-17T00:49:26;35.55;;;23.65;;
57746;SDS011;43580;44.014;20.466;2022-10-17T00:51:57;36.35;;;23.50;;
57746;SDS011;43580;44.014;20.466;2022-10-17T00:54:31;37.47;;;27.05;;
57746;SDS011;43580;44.014;20.466;2022-10-17T00:56:58;47.05;;;28.45;;
57746;SDS011;43580;44.014;20.466;2022-10-17T00:59:24;42.45;;;26.80;;
57746;SDS011;43580;44.014;20.466;2022-10-17T01:02:10;43.92;;;28.75;;
57746;SDS011;43580;44.014;20.466;2022-10-17T01:04:38;42.80;;;27.17;;
57746;SDS011;43580;44.014;20.466;2022-10-17T01:07:05;48.33;;;27.40;;
57746;SDS011;43580;44.014;20.466;2022-10-17T01:09:31;49.92;;;31.77;;
57746;SDS011;43580;44.014;20.466;2022-10-17T01:12:03;53.70;;;34.28;;
57746;SDS011;43580;44.014;20.466;2022-10-17T01:14:45;55.08;;;33.60;;
57746;SDS011;43580;44.014;20.466;2022-10-17T01:17:15;40.28;;;25.27;;
57746;SDS011;43580;44.014;20.466;2022-10-17T01:25:43;38.15;;;24.02;;
57746;SDS011;43580;44.014;20.466;2022-10-17T01:36:00;39.88;;;25.80;;
57746;SDS011;43580;44.014;20.466;2022-10-17T01:38:33;40.92;;;25.63;;
57746;SDS011;43580;44.014;20.466;2022-10-17T01:41:02;38.95;;;25.73;;
57746;SDS011;43580;44.014;20.466;2022-10-17T01:43:38;41.83;;;25.77;;
57746;SDS011;43580;44.014;20.466;2022-10-17T01:46:14;40.17;;;26.48;;
57746;SDS011;43580;44.014;20.466;2022-10-17T01:48:41;38.28;;;25.92;;
57746;SDS011;43580;44.014;20.466;2022-10-17T01:53:42;41.80;;;26.45;;
57746;SDS011;43580;44.014;20.466;2022-10-17T01:56:10;43.58;;;25.55;;
57746;SDS011;43580;44.014;20.466;2022-10-17T01:58:40;42.03;;;24.63;;
57746;SDS011;43580;44.014;20.466;2022-10-17T02:01:07;44.45;;;27.60;;
57746;SDS011;43580;44.014;20.466;2022-10-17T02:03:35;44.30;;;25.17;;
57746;SDS011;43580;44.014;20.466;2022-10-17T02:06:03;37.63;;;24.35;;
57746;SDS011;43580;44.014;20.466;2022-10-17T02:08:51;35.28;;;21.75;;
57746;SDS011;43580;44.014;20.466;2022-10-17T02:11:20;30.33;;;19.23;;
57746;SDS011;43580;44.014;20.466;2022-10-17T02:16:37;29.63;;;19.23;;
57746;SDS011;43580;44.014;20.466;2022-10-17T02:22:05;34.72;;;20.25;;
57746;SDS011;43580;44.014;20.466;2022-10-17T02:24:50;33.58;;;20.33;;
57746;SDS011;43580;44.014;20.466;2022-10-17T02:27:24;31.20;;;20.98;;
57746;SDS011;43580;44.014;20.466;2022-10-17T02:29:56;23.20;;;14.25;;
57746;SDS011;43580;44.014;20.466;2022-10-17T02:32:25;26.75;;;18.73;;
57746;SDS011;43580;44.014;20.466;2022-10-17T02:34:53;25.40;;;17.55;;
57746;SDS011;43580;44.014;20.466;2022-10-17T02:37:22;30.63;;;18.77;;
57746;SDS011;43580;44.014;20.466;2022-10-17T02:39:50;30.95;;;19.27;;
57746;SDS011;43580;44.014;20.466;2022-10-17T02:42:16;26.83;;;17.75;;
57746;SDS011;43580;44.014;20.466;2022-10-17T02:44:43;30.58;;;18.73;;
57746;SDS011;43580;44.014;20.466;2022-10-17T02:47:16;27.70;;;19.88;;
57746;SDS011;43580;44.014;20.466;2022-10-17T02:49:44;34.17;;;21.90;;
57746;SDS011;43580;44.014;20.466;2022-10-17T02:52:20;40.40;;;22.38;;
57746;SDS011;43580;44.014;20.466;2022-10-17T02:54:53;48.67;;;28.77;;
57746;SDS011;43580;44.014;20.466;2022-10-17T02:57:26;45.53;;;27.10;;
57746;SDS011;43580;44.014;20.466;2022-10-17T02:59:54;35.17;;;22.10;;
57746;SDS011;43580;44.014;20.466;2022-10-17T03:02:20;34.70;;;20.90;;
57746;SDS011;43580;44.014;20.466;2022-10-17T03:04:46;36.42;;;21.40;;
57746;SDS011;43580;44.014;20.466;2022-10-17T03:07:12;32.58;;;20.92;;
57746;SDS011;43580;44.014;20.466;2022-10-17T03:09:38;37.95;;;22.00;;
57746;SDS011;43580;44.014;20.466;2022-10-17T03:12:04;39.42;;;24.52;;
57746;SDS011;43580;44.014;20.466;2022-10-17T03:14:31;41.25;;;23.13;;
57746;SDS011;43580;44.014;20.466;2022-10-17T03:16:57;36.15;;;21.52;;
57746;SDS011;43580;44.014;20.466;2022-10-17T03:19:25;34.67;;;21.92;;
57746;SDS011;43580;44.014;20.466;2022-10-17T03:21:51;36.83;;;23.02;;
57746;SDS011;43580;44.014;20.466;2022-10-17T03:24:22;44.90;;;28.77;;
57746;SDS011;43580;44.014;20.466;2022-10-17T03:26:48;34.20;;;22.17;;
57746;SDS011;43580;44.014;20.466;2022-10-17T03:29:14;56.33;;;40.40;;
57746;SDS011;43580;44.014;20.466;2022-10-17T03:31:40;42.88;;;29.95;;
57746;SDS011;43580;44.014;20.466;2022-10-17T03:34:06;33.10;;;21.33;;
57746;SDS011;43580;44.014;20.466;2022-10-17T03:36:32;37.15;;;22.00;;
57746;SDS011;43580;44.014;20.466;2022-10-17T03:38:58;31.75;;;21.75;;
57746;SDS011;43580;44.014;20.466;2022-10-17T03:41:24;30.10;;;18.52;;
57746;SDS011;43580;44.014;20.466;2022-10-17T03:43:53;32.75;;;19.98;;
57746;SDS011;43580;44.014;20.466;2022-10-17T03:46:20;37.28;;;21.17;;
57746;SDS011;43580;44.014;20.466;2022-10-17T03:48:46;31.92;;;22.75;;
57746;SDS011;43580;44.014;20.466;2022-10-17T03:51:12;40.65;;;22.58;;
57746;SDS011;43580;44.014;20.466;2022-10-17T03:53:39;39.92;;;24.60;;
57746;SDS011;43580;44.014;20.466;2022-10-17T03:56:13;38.85;;;21.98;;
57746;SDS011;43580;44.014;20.466;2022-10-17T03:58:39;35.70;;;20.92;;
57746;SDS011;43580;44.014;20.466;2022-10-17T04:01:06;35.45;;;19.92;;
57746;SDS011;43580;44.014;20.466;2022-10-17T04:03:32;42.22;;;28.08;;
57746;SDS011;43580;44.014;20.466;2022-10-17T04:05:59;43.22;;;25.10;;
57746;SDS011;43580;44.014;20.466;2022-10-17T04:08:25;34.83;;;23.15;;
57746;SDS011;43580;44.014;20.466;2022-10-17T04:10:51;39.60;;;21.85;;
57746;SDS011;43580;44.014;20.466;2022-10-17T04:13:17;151.88;;;88.95;;
57746;SDS011;43580;44.014;20.466;2022-10-17T04:18:42;42.38;;;26.60;;
57746;SDS011;43580;44.014;20.466;2022-10-17T04:21:09;52.95;;;36.55;;
57746;SDS011;43580;44.014;20.466;2022-10-17T04:23:35;48.22;;;32.22;;
57746;SDS011;43580;44.014;20.466;2022-10-17T04:26:08;45.83;;;25.30;;
57746;SDS011;43580;44.014;20.466;2022-10-17T04:28:34;54.33;;;31.00;;
57746;SDS011;43580;44.014;20.466;2022-10-17T04:31:04;43.00;;;22.05;;
57746;SDS011;43580;44.014;20.466;2022-10-17T04:33:30;35.45;;;21.52;;
57746;SDS011;43580;44.014;20.466;2022-10-17T04:35:57;32.78;;;21.45;;
57746;SDS011;43580;44.014;20.466;2022-10-17T04:38:24;35.67;;;23.80;;
57746;SDS011;43580;44.014;20.466;2022-10-17T04:40:50;36.60;;;23.25;;
57746;SDS011;43580;44.014;20.466;2022-10-17T04:43:16;35.08;;;21.63;;
57746;SDS011;43580;44.014;20.466;2022-10-17T04:45:42;43.05;;;20.85;;
57746;SDS011;43580;44.014;20.466;2022-10-17T04:48:08;36.13;;;20.10;;
57746;SDS011;43580;44.014;20.466;2022-10-17T04:50:37;34.17;;;20.90;;
57746;SDS011;43580;44.014;20.466;2022-10-17T04:53:03;39.03;;;22.45;;
57746;SDS011;43580;44.014;20.466;2022-10-17T04:55:29;41.97;;;23.55;;
57746;SDS011;43580;44.014;20.466;2022-10-17T04:57:55;38.83;;;22.35;;
57746;SDS011;43580;44.014;20.466;2022-10-17T05:00:21;53.80;;;28.33;;
57746;SDS011;43580;44.014;20.466;2022-10-17T05:02:49;52.10;;;27.90;;
57746;SDS011;43580;44.014;20.466;2022-10-17T05:05:18;66.05;;;35.03;;
57746;SDS011;43580;44.014;20.466;2022-10-17T05:07:44;61.35;;;32.85;;
57746;SDS011;43580;44.014;20.466;2022-10-17T05:10:10;53.78;;;29.15;;
57746;SDS011;43580;44.014;20.466;2022-10-17T05:12:36;53.42;;;31.27;;
57746;SDS011;43580;44.014;20.466;2022-10-17T05:15:02;50.33;;;32.05;;
57746;SDS011;43580;44.014;20.466;2022-10-17T05:17:31;43.70;;;28.35;;
57746;SDS011;43580;44.014;20.466;2022-10-17T05:20:04;54.65;;;35.85;;
57746;SDS011;43580;44.014;20.466;2022-10-17T05:22:30;48.47;;;32.20;;
57746;SDS011;43580;44.014;20.466;2022-10-17T05:24:56;57.60;;;33.72;;
57746;SDS011;43580;44.014;20.466;2022-10-17T05:27:22;54.53;;;32.17;;
57746;SDS011;43580;44.014;20.466;2022-10-17T05:29:48;63.63;;;38.58;;
57746;SDS011;43580;44.014;20.466;2022-10-17T05:32:15;63.67;;;36.08;;
57746;SDS011;43580;44.014;20.466;2022-10-17T05:34:41;65.97;;;36.33;;
57746;SDS011;43580;44.014;20.466;2022-10-17T05:37:07;44.10;;;28.67;;
57746;SDS011;43580;44.014;20.466;2022-10-17T05:39:33;64.40;;;45.38;;
57746;SDS011;43580;44.014;20.466;2022-10-17T05:41:59;45.53;;;31.27;;
57746;SDS011;43580;44.014;20.466;2022-10-17T05:44:25;41.95;;;26.55;;
57746;SDS011;43580;44.014;20.466;2022-10-17T05:46:51;45.78;;;26.77;;
57746;SDS011;43580;44.014;20.466;2022-10-17T05:49:17;45.03;;;28.45;;
57746;SDS011;43580;44.014;20.466;2022-10-17T05:51:43;148.93;;;102.32;;
57746;SDS011;43580;44.014;20.466;2022-10-17T05:54:09;56.08;;;34.42;;
57746;SDS011;43580;44.014;20.466;2022-10-17T05:56:40;69.07;;;46.28;;
57746;SDS011;43580;44.014;20.466;2022-10-17T05:59:06;83.65;;;52.83;;
57746;SDS011;43580;44.014;20.466;2022-10-17T06:01:32;111.70;;;72.30;;
57746;SDS011;43580;44.014;20.466;2022-10-17T06:03:58;125.78;;;75.32;;
57746;SDS011;43580;44.014;20.466;2022-10-17T06:06:24;60.22;;;36.13;;
57746;SDS011;43580;44.014;20.466;2022-10-17T06:08:51;53.92;;;35.13;;
57746;SDS011;43580;44.014;20.466;2022-10-17T06:11:17;50.40;;;29.73;;
57746;SDS011;43580;44.014;20.466;2022-10-17T06:13:43;61.90;;;41.08;;
57746;SDS011;43580;44.014;20.466;2022-10-17T06:16:09;95.07;;;61.25;;
57746;SDS011;43580;44.014;20.466;2022-10-17T06:18:35;57.50;;;38.97;;
57746;SDS011;43580;44.014;20.466;2022-10-17T06:21:05;51.20;;;35.75;;
57746;SDS011;43580;44.014;20.466;2022-10-17T06:23:31;62.03;;;45.45;;
57746;SDS011;43580;44.014;20.466;2022-10-17T06:25:58;68.00;;;41.85;;
57746;SDS011;43580;44.014;20.466;2022-10-17T06:28:27;63.63;;;50.15;;
57746;SDS011;43580;44.014;20.466;2022-10-17T06:30:53;67.07;;;48.88;;
57746;SDS011;43580;44.014;20.466;2022-10-17T06:33:19;70.75;;;46.17;;
57746;SDS011;43580;44.014;20.466;2022-10-17T06:35:50;52.75;;;36.13;;
57746;SDS011;43580;44.014;20.466;2022-10-17T06:38:19;71.57;;;55.03;;
57746;SDS011;43580;44.014;20.466;2022-10-17T06:40:48;52.67;;;33.90;;
57746;SDS011;43580;44.014;20.466;2022-10-17T06:43:14;52.80;;;36.63;;
57746;SDS011;43580;44.014;20.466;2022-10-17T06:45:40;48.35;;;34.25;;
57746;SDS011;43580;44.014;20.466;2022-10-17T06:48:07;56.83;;;37.80;;
57746;SDS011;43580;44.014;20.466;2022-10-17T06:50:33;54.80;;;36.60;;
57746;SDS011;43580;44.014;20.466;2022-10-17T06:52:59;52.30;;;37.67;;
57746;SDS011;43580;44.014;20.466;2022-10-17T06:55:25;55.97;;;36.70;;
57746;SDS011;43580;44.014;20.466;2022-10-17T06:57:53;53.70;;;37.08;;
57746;SDS011;43580;44.014;20.466;2022-10-17T07:00:19;48.17;;;31.50;;
57746;SDS011;43580;44.014;20.466;2022-10-17T07:02:47;52.70;;;33.75;;
57746;SDS011;43580;44.014;20.466;2022-10-17T07:05:13;47.88;;;32.55;;
57746;SDS011;43580;44.014;20.466;2022-10-17T07:07:39;46.53;;;30.40;;
57746;SDS011;43580;44.014;20.466;2022-10-17T07:10:05;47.78;;;29.90;;
57746;SDS011;43580;44.014;20.466;2022-10-17T07:12:33;58.40;;;35.00;;
57746;SDS011;43580;44.014;20.466;2022-10-17T07:14:59;69.40;;;42.67;;
57746;SDS011;43580;44.014;20.466;2022-10-17T07:17:25;57.28;;;36.80;;
57746;SDS011;43580;44.014;20.466;2022-10-17T07:19:51;60.58;;;38.13;;
57746;SDS011;43580;44.014;20.466;2022-10-17T07:22:17;50.08;;;35.85;;
57746;SDS011;43580;44.014;20.466;2022-10-17T07:24:43;51.30;;;31.80;;
57746;SDS011;43580;44.014;20.466;2022-10-17T07:27:12;45.40;;;31.55;;
57746;SDS011;43580;44.014;20.466;2022-10-17T07:29:41;40.85;;;27.08;;
57746;SDS011;43580;44.014;20.466;2022-10-17T07:32:07;36.58;;;24.55;;
57746;SDS011;43580;44.014;20.466;2022-10-17T07:34:33;34.28;;;24.80;;
57746;SDS011;43580;44.014;20.466;2022-10-17T07:37:00;33.58;;;24.45;;
57746;SDS011;43580;44.014;20.466;2022-10-17T07:39:26;35.58;;;26.48;;
57746;SDS011;43580;44.014;20.466;2022-10-17T07:41:53;37.58;;;26.05;;
57746;SDS011;43580;44.014;20.466;2022-10-17T07:44:19;33.63;;;23.10;;
57746;SDS011;43580;44.014;20.466;2022-10-17T07:46:45;37.10;;;21.35;;
57746;SDS011;43580;44.014;20.466;2022-10-17T07:49:11;40.88;;;20.30;;
57746;SDS011;43580;44.014;20.466;2022-10-17T07:51:37;32.75;;;19.85;;
57746;SDS011;43580;44.014;20.466;2022-10-17T07:54:04;32.85;;;20.05;;
57746;SDS011;43580;44.014;20.466;2022-10-17T07:56:30;26.98;;;18.48;;
57746;SDS011;43580;44.014;20.466;2022-10-17T07:58:57;32.08;;;21.92;;
57746;SDS011;43580;44.014;20.466;2022-10-17T08:01:25;34.72;;;22.88;;
57746;SDS011;43580;44.014;20.466;2022-10-17T08:03:54;32.45;;;22.48;;
57746;SDS011;43580;44.014;20.466;2022-10-17T08:06:20;26.63;;;18.17;;
57746;SDS011;43580;44.014;20.466;2022-10-17T08:08:46;21.58;;;13.43;;
57746;SDS011;43580;44.014;20.466;2022-10-17T08:11:12;18.80;;;12.00;;
57746;SDS011;43580;44.014;20.466;2022-10-17T08:13:39;18.65;;;11.77;;
57746;SDS011;43580;44.014;20.466;2022-10-17T08:16:07;16.30;;;11.32;;
57746;SDS011;43580;44.014;20.466;2022-10-17T08:18:34;17.67;;;10.63;;
57746;SDS011;43580;44.014;20.466;2022-10-17T08:21:03;18.45;;;11.25;;
57746;SDS011;43580;44.014;20.466;2022-10-17T08:23:33;17.05;;;11.25;;
57746;SDS011;43580;44.014;20.466;2022-10-17T08:26:00;19.52;;;12.10;;
57746;SDS011;43580;44.014;20.466;2022-10-17T08:28:26;14.07;;;10.25;;
57746;SDS011;43580;44.014;20.466;2022-10-17T08:30:53;14.73;;;10.88;;
57746;SDS011;43580;44.014;20.466;2022-10-17T08:33:19;18.80;;;11.63;;
57746;SDS011;43580;44.014;20.466;2022-10-17T08:35:45;15.23;;;10.25;;
57746;SDS011;43580;44.014;20.466;2022-10-17T08:38:11;14.73;;;10.80;;
57746;SDS011;43580;44.014;20.466;2022-10-17T08:40:37;23.42;;;13.45;;
57746;SDS011;43580;44.014;20.466;2022-10-17T08:43:25;40.67;;;22.75;;
57746;SDS011;43580;44.014;20.466;2022-10-17T08:45:53;30.50;;;17.67;;
57746;SDS011;43580;44.014;20.466;2022-10-17T08:48:24;21.63;;;12.25;;
57746;SDS011;43580;44.014;20.466;2022-10-17T08:50:53;17.42;;;11.02;;
57746;SDS011;43580;44.014;20.466;2022-10-17T08:55:48;16.77;;;11.75;;
57746;SDS011;43580;44.014;20.466;2022-10-17T08:58:26;19.20;;;10.50;;
57746;SDS011;43580;44.014;20.466;2022-10-17T09:06:05;18.30;;;10.70;;
57746;SDS011;43580;44.014;20.466;2022-10-17T09:11:11;17.58;;;12.38;;
57746;SDS011;43580;44.014;20.466;2022-10-17T09:13:43;19.58;;;11.45;;
57746;SDS011;43580;44.014;20.466;2022-10-17T09:16:24;18.25;;;10.07;;
57746;SDS011;43580;44.014;20.466;2022-10-17T09:21:27;16.50;;;9.05;;
57746;SDS011;43580;44.014;20.466;2022-10-17T09:23:59;18.10;;;11.15;;
57746;SDS011;43580;44.014;20.466;2022-10-17T09:26:26;14.82;;;9.60;;
57746;SDS011;43580;44.014;20.466;2022-10-17T09:28:53;17.02;;;9.88;;
57746;SDS011;43580;44.014;20.466;2022-10-17T09:31:24;13.93;;;9.85;;
57746;SDS011;43580;44.014;20.466;2022-10-17T09:33:54;17.25;;;9.40;;
57746;SDS011;43580;44.014;20.466;2022-10-17T09:36:31;12.50;;;8.50;;
57746;SDS011;43580;44.014;20.466;2022-10-17T09:39:02;17.50;;;9.15;;
57746;SDS011;43580;44.014;20.466;2022-10-17T09:41:41;15.10;;;9.32;;
57746;SDS011;43580;44.014;20.466;2022-10-17T09:44:16;14.85;;;8.80;;
57746;SDS011;43580;44.014;20.466;2022-10-17T09:46:45;15.55;;;8.90;;
57746;SDS011;43580;44.014;20.466;2022-10-17T09:49:18;14.07;;;8.90;;
57746;SDS011;43580;44.014;20.466;2022-10-17T09:51:46;15.02;;;8.48;;
57746;SDS011;43580;44.014;20.466;2022-10-17T09:54:21;14.95;;;9.48;;
57746;SDS011;43580;44.014;20.466;2022-10-17T09:57:07;12.95;;;8.68;;
57746;SDS011;43580;44.014;20.466;2022-10-17T09:59:35;14.25;;;8.73;;
57746;SDS011;43580;44.014;20.466;2022-10-17T10:04:52;12.75;;;8.70;;
57746;SDS011;43580;44.014;20.466;2022-10-17T10:07:19;10.90;;;8.10;;
57746;SDS011;43580;44.014;20.466;2022-10-17T10:09:46;12.82;;;7.95;;
57746;SDS011;43580;44.014;20.466;2022-10-17T10:12:20;15.77;;;10.80;;
57746;SDS011;43580;44.014;20.466;2022-10-17T10:14:47;14.35;;;7.80;;
57746;SDS011;43580;44.014;20.466;2022-10-17T10:19:54;13.57;;;8.20;;
57746;SDS011;43580;44.014;20.466;2022-10-17T10:22:20;12.60;;;8.18;;
57746;SDS011;43580;44.014;20.466;2022-10-17T10:25:07;11.73;;;7.22;;
57746;SDS011;43580;44.014;20.466;2022-10-17T10:27:33;15.40;;;9.00;;
57746;SDS011;43580;44.014;20.466;2022-10-17T10:30:00;17.00;;;9.77;;
57746;SDS011;43580;44.014;20.466;2022-10-17T10:32:27;23.02;;;11.40;;
57746;SDS011;43580;44.014;20.466;2022-10-17T10:37:21;23.35;;;13.57;;
57746;SDS011;43580;44.014;20.466;2022-10-17T10:39:51;16.20;;;8.77;;
57746;SDS011;43580;44.014;20.466;2022-10-17T10:44:43;16.67;;;8.27;;
57746;SDS011;43580;44.014;20.466;2022-10-17T10:49:39;13.45;;;7.38;;
57746;SDS011;43580;44.014;20.466;2022-10-17T10:52:06;15.88;;;7.80;;
57746;SDS011;43580;44.014;20.466;2022-10-17T10:54:40;12.70;;;8.00;;
57746;SDS011;43580;44.014;20.466;2022-10-17T10:57:10;9.95;;;7.35;;
57746;SDS011;43580;44.014;20.466;2022-10-17T10:59:55;13.77;;;7.30;;
57746;SDS011;43580;44.014;20.466;2022-10-17T11:02:32;14.60;;;7.30;;
57746;SDS011;43580;44.014;20.466;2022-10-17T11:05:07;10.40;;;6.63;;
57746;SDS011;43580;44.014;20.466;2022-10-17T11:07:36;12.32;;;7.68;;
57746;SDS011;43580;44.014;20.466;2022-10-17T11:10:17;11.98;;;7.70;;
57746;SDS011;43580;44.014;20.466;2022-10-17T11:12:51;17.88;;;7.00;;
57746;SDS011;43580;44.014;20.466;2022-10-17T11:18:04;12.10;;;7.57;;
57746;SDS011;43580;44.014;20.466;2022-10-17T11:20:33;13.45;;;7.25;;
57746;SDS011;43580;44.014;20.466;2022-10-17T11:23:07;11.10;;;7.13;;
57746;SDS011;43580;44.014;20.466;2022-10-17T11:25:36;11.02;;;7.38;;
57746;SDS011;43580;44.014;20.466;2022-10-17T11:28:03;14.40;;;9.15;;
57746;SDS011;43580;44.014;20.466;2022-10-17T11:30:51;11.38;;;7.10;;
57746;SDS011;43580;44.014;20.466;2022-10-17T11:33:24;12.63;;;7.45;;
57746;SDS011;43580;44.014;20.466;2022-10-17T11:35:52;10.18;;;6.45;;
57746;SDS011;43580;44.014;20.466;2022-10-17T11:38:24;12.60;;;6.60;;
57746;SDS011;43580;44.014;20.466;2022-10-17T11:40:52;12.25;;;7.40;;
57746;SDS011;43580;44.014;20.466;2022-10-17T11:43:33;12.75;;;6.25;;
57746;SDS011;43580;44.014;20.466;2022-10-17T11:46:01;10.43;;;7.22;;
57746;SDS011;43580;44.014;20.466;2022-10-17T11:48:33;20.58;;;7.75;;
57746;SDS011;43580;44.014;20.466;2022-10-17T11:51:09;10.38;;;6.93;;
57746;SDS011;43580;44.014;20.466;2022-10-17T11:53:44;12.00;;;6.50;;
57746;SDS011;43580;44.014;20.466;2022-10-17T11:56:14;17.25;;;8.57;;
57746;SDS011;43580;44.014;20.466;2022-10-17T11:58:50;14.73;;;8.77;;
57746;SDS011;43580;44.014;20.466;2022-10-17T12:03:52;15.57;;;7.95;;
57746;SDS011;43580;44.014;20.466;2022-10-17T12:13:50;9.00;;;6.07;;
57746;SDS011;43580;44.014;20.466;2022-10-17T12:18:43;7.82;;;5.32;;
57746;SDS011;43580;44.014;20.466;2022-10-17T12:21:10;8.27;;;4.20;;
57746;SDS011;43580;44.014;20.466;2022-10-17T12:23:36;7.43;;;4.10;;
57746;SDS011;43580;44.014;20.466;2022-10-17T12:26:07;9.77;;;3.88;;
57746;SDS011;43580;44.014;20.466;2022-10-17T12:38:42;13.23;;;9.20;;
57746;SDS011;43580;44.014;20.466;2022-10-17T12:41:09;5.20;;;3.53;;
57746;SDS011;43580;44.014;20.466;2022-10-17T12:43:45;4.85;;;3.17;;
57746;SDS011;43580;44.014;20.466;2022-10-17T12:46:12;8.65;;;3.45;;
57746;SDS011;43580;44.014;20.466;2022-10-17T12:51:05;5.03;;;3.38;;
57746;SDS011;43580;44.014;20.466;2022-10-17T12:56:16;7.60;;;5.20;;
57746;SDS011;43580;44.014;20.466;2022-10-17T12:58:49;6.68;;;3.72;;
57746;SDS011;43580;44.014;20.466;2022-10-17T13:01:28;9.55;;;4.15;;
57746;SDS011;43580;44.014;20.466;2022-10-17T13:03:56;9.90;;;4.55;;
57746;SDS011;43580;44.014;20.466;2022-10-17T13:06:30;17.95;;;9.13;;
57746;SDS011;43580;44.014;20.466;2022-10-17T13:09:06;33.63;;;16.77;;
57746;SDS011;43580;44.014;20.466;2022-10-17T13:11:35;19.13;;;6.93;;
57746;SDS011;43580;44.014;20.466;2022-10-17T13:14:02;11.10;;;4.38;;
57746;SDS011;43580;44.014;20.466;2022-10-17T13:16:33;7.93;;;4.38;;
57746;SDS011;43580;44.014;20.466;2022-10-17T13:19:01;13.05;;;4.82;;
57746;SDS011;43580;44.014;20.466;2022-10-17T13:21:27;13.90;;;7.43;;
57746;SDS011;43580;44.014;20.466;2022-10-17T13:23:53;13.50;;;7.47;;
57746;SDS011;43580;44.014;20.466;2022-10-17T13:26:21;9.82;;;6.70;;
57746;SDS011;43580;44.014;20.466;2022-10-17T13:29:09;11.20;;;6.53;;
57746;SDS011;43580;44.014;20.466;2022-10-17T13:31:39;12.45;;;5.25;;
57746;SDS011;43580;44.014;20.466;2022-10-17T13:34:12;12.75;;;7.40;;
57746;SDS011;43580;44.014;20.466;2022-10-17T13:36:39;9.63;;;7.85;;
57746;SDS011;43580;44.014;20.466;2022-10-17T13:39:07;15.82;;;6.68;;
57746;SDS011;43580;44.014;20.466;2022-10-17T13:41:34;8.02;;;5.80;;
57746;SDS011;43580;44.014;20.466;2022-10-17T13:44:00;11.18;;;7.30;;
57746;SDS011;43580;44.014;20.466;2022-10-17T13:46:29;11.00;;;6.82;;
57746;SDS011;43580;44.014;20.466;2022-10-17T13:48:56;13.95;;;8.02;;
57746;SDS011;43580;44.014;20.466;2022-10-17T13:51:24;10.55;;;7.32;;
57746;SDS011;43580;44.014;20.466;2022-10-17T13:53:50;9.63;;;5.75;;
57746;SDS011;43580;44.014;20.466;2022-10-17T13:56:24;6.82;;;4.32;;
57746;SDS011;43580;44.014;20.466;2022-10-17T13:58:51;8.07;;;5.00;;
57746;SDS011;43580;44.014;20.466;2022-10-17T14:01:21;10.20;;;5.05;;
57746;SDS011;43580;44.014;20.466;2022-10-17T14:03:48;7.63;;;5.30;;
57746;SDS011;43580;44.014;20.466;2022-10-17T14:06:18;31.95;;;19.95;;
57746;SDS011;43580;44.014;20.466;2022-10-17T14:09:06;10.65;;;6.15;;
57746;SDS011;43580;44.014;20.466;2022-10-17T14:11:33;6.88;;;4.57;;
57746;SDS011;43580;44.014;20.466;2022-10-17T14:14:00;9.10;;;4.65;;
57746;SDS011;43580;44.014;20.466;2022-10-17T14:16:31;11.18;;;5.05;;
57746;SDS011;43580;44.014;20.466;2022-10-17T14:19:01;9.70;;;7.00;;
57746;SDS011;43580;44.014;20.466;2022-10-17T14:21:27;8.75;;;5.60;;
57746;SDS011;43580;44.014;20.466;2022-10-17T14:24:24;10.48;;;5.47;;
57746;SDS011;43580;44.014;20.466;2022-10-17T14:26:52;10.82;;;7.50;;
57746;SDS011;43580;44.014;20.466;2022-10-17T14:31:45;11.70;;;7.45;;
57746;SDS011;43580;44.014;20.466;2022-10-17T14:34:23;12.40;;;8.32;;
57746;SDS011;43580;44.014;20.466;2022-10-17T14:36:50;12.77;;;7.55;;
57746;SDS011;43580;44.014;20.466;2022-10-17T14:39:21;9.35;;;7.47;;
57746;SDS011;43580;44.014;20.466;2022-10-17T14:41:47;9.57;;;6.93;;
57746;SDS011;43580;44.014;20.466;2022-10-17T14:46:43;11.88;;;7.65;;
57746;SDS011;43580;44.014;20.466;2022-10-17T14:49:16;9.07;;;6.95;;
57746;SDS011;43580;44.014;20.466;2022-10-17T14:54:29;9.35;;;6.75;;
57746;SDS011;43580;44.014;20.466;2022-10-17T14:56:56;9.43;;;6.35;;
57746;SDS011;43580;44.014;20.466;2022-10-17T14:59:22;24.20;;;17.85;;
57746;SDS011;43580;44.014;20.466;2022-10-17T15:01:51;17.52;;;11.10;;
57746;SDS011;43580;44.014;20.466;2022-10-17T15:04:17;16.25;;;12.18;;
57746;SDS011;43580;44.014;20.466;2022-10-17T15:06:43;16.70;;;9.70;;
57746;SDS011;43580;44.014;20.466;2022-10-17T15:09:10;25.20;;;15.02;;
57746;SDS011;43580;44.014;20.466;2022-10-17T15:11:36;12.38;;;8.70;;
57746;SDS011;43580;44.014;20.466;2022-10-17T15:14:05;12.48;;;9.70;;
57746;SDS011;43580;44.014;20.466;2022-10-17T15:16:32;11.38;;;6.95;;
57746;SDS011;43580;44.014;20.466;2022-10-17T15:18:58;16.60;;;7.88;;
57746;SDS011;43580;44.014;20.466;2022-10-17T15:21:25;11.20;;;7.32;;
57746;SDS011;43580;44.014;20.466;2022-10-17T15:23:52;10.18;;;8.45;;
57746;SDS011;43580;44.014;20.466;2022-10-17T15:28:44;11.90;;;9.05;;
57746;SDS011;43580;44.014;20.466;2022-10-17T15:31:12;12.55;;;8.93;;
57746;SDS011;43580;44.014;20.466;2022-10-17T15:33:38;17.10;;;9.73;;
57746;SDS011;43580;44.014;20.466;2022-10-17T15:36:14;17.40;;;11.27;;
57746;SDS011;43580;44.014;20.466;2022-10-17T15:38:41;20.95;;;11.07;;
57746;SDS011;43580;44.014;20.466;2022-10-17T15:41:08;17.50;;;10.98;;
57746;SDS011;43580;44.014;20.466;2022-10-17T15:43:34;19.02;;;11.07;;
57746;SDS011;43580;44.014;20.466;2022-10-17T15:46:00;20.33;;;12.13;;
57746;SDS011;43580;44.014;20.466;2022-10-17T15:48:27;44.38;;;21.17;;
57746;SDS011;43580;44.014;20.466;2022-10-17T15:50:54;28.92;;;16.15;;
57746;SDS011;43580;44.014;20.466;2022-10-17T15:53:20;28.13;;;16.60;;
57746;SDS011;43580;44.014;20.466;2022-10-17T15:55:48;36.60;;;17.02;;